sensor_id;sensor_type;location;lat;lon;timestamp;P1;durP1;ratioP1;P2;durP2;ratioP2
8353;SDS011;4656;48.090;11.498;2023-04-03T00:00:51;13.93;;;10.23;;
8353;SDS011;4656;48.090;11.498;2023-04-03T00:02:55;16.45;;;11.52;;
8353;SDS011;4656;48.090;11.498;2023-04-03T00:04:57;17.23;;;11.27;;
8353;SDS011;4656;48.090;11.498;2023-04-03T00:06:59;20.30;;;11.18;;
8353;SDS011;4656;48.090;11.498;2023-04-03T00:09:01;17.25;;;11.30;;
8353;SDS011;4656;48.090;11.498;2023-04-03T00:11:04;18.90;;;12.00;;
8353;SDS011;4656;48.090;11.498;2023-04-03T00:13:06;18.25;;;11.60;;
8353;SDS011;4656;48.090;11.498;2023-04-03T00:15:09;16.30;;;10.80;;
8353;SDS011;4656;48.090;11.498;2023-04-03T00:17:11;16.77;;;10.80;;
8353;SDS011;4656;48.090;11.498;2023-04-03T00:19:14;17.27;;;10.77;;
8353;SDS011;4656;48.090;11.498;2023-04-03T00:21:16;18.30;;;11.57;;
8353;SDS011;4656;48.090;11.498;2023-04-03T00:23:21;15.05;;;11.18;;
8353;SDS011;4656;48.090;11.498;2023-04-03T00:25:24;16.23;;;10.80;;
8353;SDS011;4656;48.090;11.498;2023-04-03T00:27:30;14.25;;;10.38;;
8353;SDS011;4656;48.090;11.498;2023-04-03T00:29:32;15.73;;;10.18;;
8353;SDS011;4656;48.090;11.498;2023-04-03T00:31:34;14.43;;;10.13;;
8353;SDS011;4656;48.090;11.498;2023-04-03T00:33:36;15.30;;;9.90;;
8353;SDS011;4656;48.090;11.498;2023-04-03T00:35:40;15.40;;;10.82;;
8353;SDS011;4656;48.090;11.498;2023-04-03T00:37:42;15.93;;;10.13;;
8353;SDS011;4656;48.090;11.498;2023-04-03T00:39:45;15.45;;;10.70;;
8353;SDS011;4656;48.090;11.498;2023-04-03T00:41:47;16.58;;;10.88;;
8353;SDS011;4656;48.090;11.498;2023-04-03T00:43:49;16.30;;;10.65;;
8353;SDS011;4656;48.090;11.498;2023-04-03T00:45:52;15.80;;;11.00;;
8353;SDS011;4656;48.090;11.498;2023-04-03T00:47:55;16.38;;;10.80;;
8353;SDS011;4656;48.090;11.498;2023-04-03T00:49:59;17.80;;;11.40;;
8353;SDS011;4656;48.090;11.498;2023-04-03T00:52:03;18.35;;;11.82;;
8353;SDS011;4656;48.090;11.498;2023-04-03T00:54:07;15.20;;;10.30;;
8353;SDS011;4656;48.090;11.498;2023-04-03T00:56:10;14.38;;;10.73;;
8353;SDS011;4656;48.090;11.498;2023-04-03T00:58:15;13.85;;;10.68;;
8353;SDS011;4656;48.090;11.498;2023-04-03T01:00:18;14.25;;;10.07;;
8353;SDS011;4656;48.090;11.498;2023-04-03T01:02:22;15.93;;;11.20;;
8353;SDS011;4656;48.090;11.498;2023-04-03T01:04:26;14.68;;;10.55;;
8353;SDS011;4656;48.090;11.498;2023-04-03T01:06:29;14.88;;;10.98;;
8353;SDS011;4656;48.090;11.498;2023-04-03T01:08:37;16.40;;;10.68;;
8353;SDS011;4656;48.090;11.498;2023-04-03T01:10:40;16.30;;;11.27;;
8353;SDS011;4656;48.090;11.498;2023-04-03T01:12:43;12.82;;;9.55;;
8353;SDS011;4656;48.090;11.498;2023-04-03T01:14:46;13.73;;;9.85;;
8353;SDS011;4656;48.090;11.498;2023-04-03T01:16:52;13.85;;;10.23;;
8353;SDS011;4656;48.090;11.498;2023-04-03T01:18:54;15.02;;;10.52;;
8353;SDS011;4656;48.090;11.498;2023-04-03T01:23:20;12.77;;;9.90;;
8353;SDS011;4656;48.090;11.498;2023-04-03T01:25:25;12.27;;;9.45;;
8353;SDS011;4656;48.090;11.498;2023-04-03T01:27:27;15.32;;;10.13;;
8353;SDS011;4656;48.090;11.498;2023-04-03T01:29:30;13.52;;;9.43;;
8353;SDS011;4656;48.090;11.498;2023-04-03T01:31:41;13.52;;;9.52;;
8353;SDS011;4656;48.090;11.498;2023-04-03T01:33:45;14.70;;;10.30;;
8353;SDS011;4656;48.090;11.498;2023-04-03T01:35:47;15.85;;;10.07;;
8353;SDS011;4656;48.090;11.498;2023-04-03T01:37:50;12.40;;;9.60;;
8353;SDS011;4656;48.090;11.498;2023-04-03T01:39:52;13.32;;;9.52;;
8353;SDS011;4656;48.090;11.498;2023-04-03T01:41:54;13.80;;;10.53;;
8353;SDS011;4656;48.090;11.498;2023-04-03T01:44:00;14.07;;;10.02;;
8353;SDS011;4656;48.090;11.498;2023-04-03T01:46:02;13.97;;;10.73;;
8353;SDS011;4656;48.090;11.498;2023-04-03T01:48:06;14.85;;;10.00;;
8353;SDS011;4656;48.090;11.498;2023-04-03T01:50:08;13.48;;;10.20;;
8353;SDS011;4656;48.090;11.498;2023-04-03T01:52:11;12.60;;;9.50;;
8353;SDS011;4656;48.090;11.498;2023-04-03T01:54:13;13.27;;;9.57;;
8353;SDS011;4656;48.090;11.498;2023-04-03T01:56:15;11.98;;;9.80;;
8353;SDS011;4656;48.090;11.498;2023-04-03T01:58:17;12.80;;;10.25;;
8353;SDS011;4656;48.090;11.498;2023-04-03T02:00:20;13.63;;;10.07;;
8353;SDS011;4656;48.090;11.498;2023-04-03T02:02:22;12.90;;;9.90;;
8353;SDS011;4656;48.090;11.498;2023-04-03T02:04:26;14.93;;;10.30;;
8353;SDS011;4656;48.090;11.498;2023-04-03T02:06:28;13.38;;;9.73;;
8353;SDS011;4656;48.090;11.498;2023-04-03T02:08:30;13.48;;;10.00;;
8353;SDS011;4656;48.090;11.498;2023-04-03T02:10:32;14.70;;;10.25;;
8353;SDS011;4656;48.090;11.498;2023-04-03T02:12:35;16.40;;;10.20;;
8353;SDS011;4656;48.090;11.498;2023-04-03T02:14:37;13.68;;;10.60;;
8353;SDS011;4656;48.090;11.498;2023-04-03T02:16:39;13.40;;;9.88;;
8353;SDS011;4656;48.090;11.498;2023-04-03T02:18:41;14.50;;;10.45;;
8353;SDS011;4656;48.090;11.498;2023-04-03T02:20:45;12.10;;;9.82;;
8353;SDS011;4656;48.090;11.498;2023-04-03T02:22:48;13.90;;;9.77;;
8353;SDS011;4656;48.090;11.498;2023-04-03T02:24:50;13.50;;;10.18;;
8353;SDS011;4656;48.090;11.498;2023-04-03T02:26:52;14.02;;;9.85;;
8353;SDS011;4656;48.090;11.498;2023-04-03T02:28:54;14.43;;;9.52;;
8353;SDS011;4656;48.090;11.498;2023-04-03T02:30:57;12.20;;;9.60;;
8353;SDS011;4656;48.090;11.498;2023-04-03T02:32:59;12.65;;;9.63;;
8353;SDS011;4656;48.090;11.498;2023-04-03T02:35:01;12.27;;;9.52;;
8353;SDS011;4656;48.090;11.498;2023-04-03T02:37:04;11.68;;;9.38;;
8353;SDS011;4656;48.090;11.498;2023-04-03T02:39:07;11.77;;;9.20;;
8353;SDS011;4656;48.090;11.498;2023-04-03T02:41:10;11.65;;;8.85;;
8353;SDS011;4656;48.090;11.498;2023-04-03T02:43:15;12.13;;;8.68;;
8353;SDS011;4656;48.090;11.498;2023-04-03T02:45:17;11.98;;;8.77;;
8353;SDS011;4656;48.090;11.498;2023-04-03T02:47:19;12.13;;;8.93;;
8353;SDS011;4656;48.090;11.498;2023-04-03T02:49:22;11.05;;;8.88;;
8353;SDS011;4656;48.090;11.498;2023-04-03T02:51:24;9.45;;;8.00;;
8353;SDS011;4656;48.090;11.498;2023-04-03T02:53:27;11.02;;;8.23;;
8353;SDS011;4656;48.090;11.498;2023-04-03T02:55:29;10.50;;;8.02;;
8353;SDS011;4656;48.090;11.498;2023-04-03T02:57:31;11.52;;;8.30;;
8353;SDS011;4656;48.090;11.498;2023-04-03T02:59:34;11.13;;;8.07;;
8353;SDS011;4656;48.090;11.498;2023-04-03T03:01:36;10.32;;;8.27;;
8353;SDS011;4656;48.090;11.498;2023-04-03T03:03:38;9.77;;;7.80;;
8353;SDS011;4656;48.090;11.498;2023-04-03T03:05:40;10.35;;;7.50;;
8353;SDS011;4656;48.090;11.498;2023-04-03T03:07:42;9.90;;;8.00;;
8353;SDS011;4656;48.090;11.498;2023-04-03T03:09:46;11.23;;;7.68;;
8353;SDS011;4656;48.090;11.498;2023-04-03T03:11:48;9.43;;;7.95;;
8353;SDS011;4656;48.090;11.498;2023-04-03T03:13:50;9.30;;;7.40;;
8353;SDS011;4656;48.090;11.498;2023-04-03T03:15:52;9.43;;;7.50;;
8353;SDS011;4656;48.090;11.498;2023-04-03T03:17:55;8.38;;;7.47;;
8353;SDS011;4656;48.090;11.498;2023-04-03T03:19:59;11.77;;;7.75;;
8353;SDS011;4656;48.090;11.498;2023-04-03T03:22:01;10.10;;;7.67;;
8353;SDS011;4656;48.090;11.498;2023-04-03T03:24:03;9.70;;;7.35;;
8353;SDS011;4656;48.090;11.498;2023-04-03T03:26:07;9.63;;;6.75;;
8353;SDS011;4656;48.090;11.498;2023-04-03T03:28:10;9.95;;;7.15;;
8353;SDS011;4656;48.090;11.498;2023-04-03T03:30:15;11.97;;;7.60;;
8353;SDS011;4656;48.090;11.498;2023-04-03T03:32:17;8.50;;;6.95;;
8353;SDS011;4656;48.090;11.498;2023-04-03T03:34:19;8.57;;;6.78;;
8353;SDS011;4656;48.090;11.498;2023-04-03T03:36:21;8.55;;;6.40;;
8353;SDS011;4656;48.090;11.498;2023-04-03T03:38:23;7.68;;;5.93;;
8353;SDS011;4656;48.090;11.498;2023-04-03T03:40:25;8.35;;;6.93;;
8353;SDS011;4656;48.090;11.498;2023-04-03T03:42:29;7.70;;;6.00;;
8353;SDS011;4656;48.090;11.498;2023-04-03T03:44:31;10.10;;;6.03;;
8353;SDS011;4656;48.090;11.498;2023-04-03T03:46:33;6.93;;;5.90;;
8353;SDS011;4656;48.090;11.498;2023-04-03T03:48:35;10.15;;;6.18;;
8353;SDS011;4656;48.090;11.498;2023-04-03T03:50:38;7.63;;;5.80;;
8353;SDS011;4656;48.090;11.498;2023-04-03T03:52:40;7.53;;;5.68;;
8353;SDS011;4656;48.090;11.498;2023-04-03T03:54:42;8.60;;;5.82;;
8353;SDS011;4656;48.090;11.498;2023-04-03T03:56:44;7.57;;;6.00;;
8353;SDS011;4656;48.090;11.498;2023-04-03T03:58:48;8.02;;;5.72;;
8353;SDS011;4656;48.090;11.498;2023-04-03T04:00:50;6.45;;;5.47;;
8353;SDS011;4656;48.090;11.498;2023-04-03T04:02:52;7.35;;;5.45;;
8353;SDS011;4656;48.090;11.498;2023-04-03T04:04:57;6.78;;;5.25;;
8353;SDS011;4656;48.090;11.498;2023-04-03T04:06:59;6.82;;;5.38;;
8353;SDS011;4656;48.090;11.498;2023-04-03T04:09:01;6.55;;;5.35;;
8353;SDS011;4656;48.090;11.498;2023-04-03T04:11:03;6.22;;;5.18;;
8353;SDS011;4656;48.090;11.498;2023-04-03T04:13:08;6.43;;;5.25;;
8353;SDS011;4656;48.090;11.498;2023-04-03T04:15:11;6.95;;;5.28;;
8353;SDS011;4656;48.090;11.498;2023-04-03T04:17:14;6.07;;;5.28;;
8353;SDS011;4656;48.090;11.498;2023-04-03T04:19:16;6.88;;;5.05;;
8353;SDS011;4656;48.090;11.498;2023-04-03T04:21:18;6.05;;;5.05;;
8353;SDS011;4656;48.090;11.498;2023-04-03T04:23:20;5.90;;;4.83;;
8353;SDS011;4656;48.090;11.498;2023-04-03T04:25:22;6.00;;;5.40;;
8353;SDS011;4656;48.090;11.498;2023-04-03T04:27:25;5.80;;;4.50;;
8353;SDS011;4656;48.090;11.498;2023-04-03T04:29:27;6.93;;;5.18;;
8353;SDS011;4656;48.090;11.498;2023-04-03T04:31:30;5.72;;;4.68;;
8353;SDS011;4656;48.090;11.498;2023-04-03T04:33:32;5.43;;;4.90;;
8353;SDS011;4656;48.090;11.498;2023-04-03T04:35:35;5.32;;;4.80;;
8353;SDS011;4656;48.090;11.498;2023-04-03T04:37:37;5.97;;;5.10;;
8353;SDS011;4656;48.090;11.498;2023-04-03T04:39:40;5.55;;;4.78;;
8353;SDS011;4656;48.090;11.498;2023-04-03T04:41:42;7.10;;;5.00;;
8353;SDS011;4656;48.090;11.498;2023-04-03T04:43:44;5.70;;;5.00;;
8353;SDS011;4656;48.090;11.498;2023-04-03T04:45:46;6.43;;;4.88;;
8353;SDS011;4656;48.090;11.498;2023-04-03T04:47:50;6.00;;;4.90;;
8353;SDS011;4656;48.090;11.498;2023-04-03T04:49:52;6.43;;;4.95;;
8353;SDS011;4656;48.090;11.498;2023-04-03T04:51:55;7.03;;;5.20;;
8353;SDS011;4656;48.090;11.498;2023-04-03T04:53:57;6.93;;;5.03;;
8353;SDS011;4656;48.090;11.498;2023-04-03T04:55:59;7.90;;;5.20;;
8353;SDS011;4656;48.090;11.498;2023-04-03T04:58:01;6.82;;;5.00;;
8353;SDS011;4656;48.090;11.498;2023-04-03T05:00:04;5.97;;;4.53;;
8353;SDS011;4656;48.090;11.498;2023-04-03T05:02:06;6.20;;;4.85;;
8353;SDS011;4656;48.090;11.498;2023-04-03T05:04:10;4.70;;;4.20;;
8353;SDS011;4656;48.090;11.498;2023-04-03T05:06:12;5.53;;;4.50;;
8353;SDS011;4656;48.090;11.498;2023-04-03T05:08:14;5.65;;;4.68;;
8353;SDS011;4656;48.090;11.498;2023-04-03T05:10:16;6.63;;;4.60;;
8353;SDS011;4656;48.090;11.498;2023-04-03T05:12:19;5.63;;;4.78;;
8353;SDS011;4656;48.090;11.498;2023-04-03T05:14:21;7.13;;;4.80;;
8353;SDS011;4656;48.090;11.498;2023-04-03T05:16:23;6.27;;;4.50;;
8353;SDS011;4656;48.090;11.498;2023-04-03T05:18:26;6.43;;;4.40;;
8353;SDS011;4656;48.090;11.498;2023-04-03T05:20:29;5.55;;;4.60;;
8353;SDS011;4656;48.090;11.498;2023-04-03T05:22:31;5.68;;;4.55;;
8353;SDS011;4656;48.090;11.498;2023-04-03T05:24:33;6.35;;;5.00;;
8353;SDS011;4656;48.090;11.498;2023-04-03T05:26:36;6.25;;;4.82;;
8353;SDS011;4656;48.090;11.498;2023-04-03T05:28:38;5.90;;;5.10;;
8353;SDS011;4656;48.090;11.498;2023-04-03T05:30:40;6.20;;;4.78;;
8353;SDS011;4656;48.090;11.498;2023-04-03T05:32:42;5.22;;;4.65;;
8353;SDS011;4656;48.090;11.498;2023-04-03T05:34:45;5.40;;;4.35;;
8353;SDS011;4656;48.090;11.498;2023-04-03T05:36:49;6.22;;;4.70;;
8353;SDS011;4656;48.090;11.498;2023-04-03T05:38:51;9.85;;;4.30;;
8353;SDS011;4656;48.090;11.498;2023-04-03T05:40:56;7.10;;;4.88;;
8353;SDS011;4656;48.090;11.498;2023-04-03T05:42:58;6.22;;;4.80;;
8353;SDS011;4656;48.090;11.498;2023-04-03T05:45:00;5.75;;;4.63;;
8353;SDS011;4656;48.090;11.498;2023-04-03T05:47:02;6.30;;;4.55;;
8353;SDS011;4656;48.090;11.498;2023-04-03T05:49:05;5.07;;;4.38;;
8353;SDS011;4656;48.090;11.498;2023-04-03T05:51:09;5.13;;;4.32;;
8353;SDS011;4656;48.090;11.498;2023-04-03T05:53:17;7.03;;;4.80;;
8353;SDS011;4656;48.090;11.498;2023-04-03T05:55:20;6.20;;;4.20;;
8353;SDS011;4656;48.090;11.498;2023-04-03T05:57:23;7.15;;;4.47;;
8353;SDS011;4656;48.090;11.498;2023-04-03T05:59:25;4.90;;;4.10;;
8353;SDS011;4656;48.090;11.498;2023-04-03T06:01:27;7.50;;;4.60;;
8353;SDS011;4656;48.090;11.498;2023-04-03T06:03:31;6.60;;;4.47;;
8353;SDS011;4656;48.090;11.498;2023-04-03T06:05:33;5.22;;;3.97;;
8353;SDS011;4656;48.090;11.498;2023-04-03T06:07:36;7.38;;;4.35;;
8353;SDS011;4656;48.090;11.498;2023-04-03T06:09:39;5.15;;;3.90;;
8353;SDS011;4656;48.090;11.498;2023-04-03T06:11:41;5.13;;;3.90;;
8353;SDS011;4656;48.090;11.498;2023-04-03T06:13:43;6.10;;;3.95;;
8353;SDS011;4656;48.090;11.498;2023-04-03T06:15:46;5.38;;;4.03;;
8353;SDS011;4656;48.090;11.498;2023-04-03T06:17:48;6.35;;;4.45;;
8353;SDS011;4656;48.090;11.498;2023-04-03T06:19:50;5.30;;;3.85;;
8353;SDS011;4656;48.090;11.498;2023-04-03T06:21:52;7.53;;;4.40;;
8353;SDS011;4656;48.090;11.498;2023-04-03T06:23:55;4.95;;;4.32;;
8353;SDS011;4656;48.090;11.498;2023-04-03T06:25:58;5.95;;;4.32;;
8353;SDS011;4656;48.090;11.498;2023-04-03T06:28:01;5.25;;;4.10;;
8353;SDS011;4656;48.090;11.498;2023-04-03T06:30:03;4.20;;;3.80;;
8353;SDS011;4656;48.090;11.498;2023-04-03T06:32:06;4.60;;;3.75;;
8353;SDS011;4656;48.090;11.498;2023-04-03T06:34:08;4.97;;;3.50;;
8353;SDS011;4656;48.090;11.498;2023-04-03T06:36:11;4.30;;;3.90;;
8353;SDS011;4656;48.090;11.498;2023-04-03T06:38:13;5.25;;;3.85;;
8353;SDS011;4656;48.090;11.498;2023-04-03T06:40:15;5.00;;;4.37;;
8353;SDS011;4656;48.090;11.498;2023-04-03T06:42:21;5.00;;;4.07;;
8353;SDS011;4656;48.090;11.498;2023-04-03T06:44:23;5.40;;;4.00;;
8353;SDS011;4656;48.090;11.498;2023-04-03T06:46:26;5.57;;;4.30;;
8353;SDS011;4656;48.090;11.498;2023-04-03T06:48:28;5.25;;;4.03;;
8353;SDS011;4656;48.090;11.498;2023-04-03T06:50:30;5.35;;;3.53;;
8353;SDS011;4656;48.090;11.498;2023-04-03T06:52:32;4.75;;;3.90;;
8353;SDS011;4656;48.090;11.498;2023-04-03T06:54:35;5.18;;;3.85;;
8353;SDS011;4656;48.090;11.498;2023-04-03T06:56:37;5.28;;;3.97;;
8353;SDS011;4656;48.090;11.498;2023-04-03T06:58:40;5.45;;;3.65;;
8353;SDS011;4656;48.090;11.498;2023-04-03T07:00:43;5.13;;;3.72;;
8353;SDS011;4656;48.090;11.498;2023-04-03T07:02:45;4.88;;;3.88;;
8353;SDS011;4656;48.090;11.498;2023-04-03T07:04:47;5.50;;;3.97;;
8353;SDS011;4656;48.090;11.498;2023-04-03T07:06:49;5.80;;;3.80;;
8353;SDS011;4656;48.090;11.498;2023-04-03T07:08:52;5.55;;;3.83;;
8353;SDS011;4656;48.090;11.498;2023-04-03T07:10:54;4.45;;;3.80;;
8353;SDS011;4656;48.090;11.498;2023-04-03T07:12:56;5.65;;;4.07;;
8353;SDS011;4656;48.090;11.498;2023-04-03T07:15:00;5.13;;;3.60;;
8353;SDS011;4656;48.090;11.498;2023-04-03T07:17:02;4.68;;;4.00;;
8353;SDS011;4656;48.090;11.498;2023-04-03T07:19:05;4.75;;;3.50;;
8353;SDS011;4656;48.090;11.498;2023-04-03T07:21:09;4.82;;;3.70;;
8353;SDS011;4656;48.090;11.498;2023-04-03T07:23:12;4.50;;;3.50;;
8353;SDS011;4656;48.090;11.498;2023-04-03T07:25:14;6.18;;;4.00;;
8353;SDS011;4656;48.090;11.498;2023-04-03T07:27:17;5.80;;;3.80;;
8353;SDS011;4656;48.090;11.498;2023-04-03T07:29:19;6.05;;;3.45;;
8353;SDS011;4656;48.090;11.498;2023-04-03T07:31:23;4.72;;;3.33;;
8353;SDS011;4656;48.090;11.498;2023-04-03T07:33:26;4.28;;;3.85;;
8353;SDS011;4656;48.090;11.498;2023-04-03T07:35:31;4.90;;;4.00;;
8353;SDS011;4656;48.090;11.498;2023-04-03T07:37:33;5.53;;;4.07;;
8353;SDS011;4656;48.090;11.498;2023-04-03T07:39:35;7.07;;;3.70;;
8353;SDS011;4656;48.090;11.498;2023-04-03T07:41:38;5.28;;;3.83;;
8353;SDS011;4656;48.090;11.498;2023-04-03T07:43:40;4.05;;;3.60;;
8353;SDS011;4656;48.090;11.498;2023-04-03T07:45:42;7.30;;;3.53;;
8353;SDS011;4656;48.090;11.498;2023-04-03T07:47:46;4.63;;;3.80;;
8353;SDS011;4656;48.090;11.498;2023-04-03T07:49:48;6.57;;;3.60;;
8353;SDS011;4656;48.090;11.498;2023-04-03T07:51:50;5.30;;;3.70;;
8353;SDS011;4656;48.090;11.498;2023-04-03T07:53:53;5.17;;;3.43;;
8353;SDS011;4656;48.090;11.498;2023-04-03T07:55:58;5.73;;;3.77;;
8353;SDS011;4656;48.090;11.498;2023-04-03T07:58:02;5.80;;;3.72;;
8353;SDS011;4656;48.090;11.498;2023-04-03T08:00:05;6.18;;;4.25;;
8353;SDS011;4656;48.090;11.498;2023-04-03T08:02:09;4.35;;;3.80;;
8353;SDS011;4656;48.090;11.498;2023-04-03T08:04:12;7.85;;;4.32;;
8353;SDS011;4656;48.090;11.498;2023-04-03T08:06:14;5.30;;;3.83;;
8353;SDS011;4656;48.090;11.498;2023-04-03T08:08:17;5.10;;;4.10;;
8353;SDS011;4656;48.090;11.498;2023-04-03T08:10:20;4.43;;;3.90;;
8353;SDS011;4656;48.090;11.498;2023-04-03T08:12:22;5.78;;;4.13;;
8353;SDS011;4656;48.090;11.498;2023-04-03T08:14:24;6.28;;;4.45;;
8353;SDS011;4656;48.090;11.498;2023-04-03T08:16:26;4.93;;;4.13;;
8353;SDS011;4656;48.090;11.498;2023-04-03T08:18:28;5.22;;;4.00;;
8353;SDS011;4656;48.090;11.498;2023-04-03T08:20:33;5.90;;;4.38;;
8353;SDS011;4656;48.090;11.498;2023-04-03T08:22:35;6.28;;;4.80;;
8353;SDS011;4656;48.090;11.498;2023-04-03T08:24:37;6.95;;;4.32;;
8353;SDS011;4656;48.090;11.498;2023-04-03T08:26:39;7.70;;;4.65;;
8353;SDS011;4656;48.090;11.498;2023-04-03T08:28:41;5.20;;;4.47;;
8353;SDS011;4656;48.090;11.498;2023-04-03T08:30:43;6.05;;;4.25;;
8353;SDS011;4656;48.090;11.498;2023-04-03T08:32:46;6.70;;;4.50;;
8353;SDS011;4656;48.090;11.498;2023-04-03T08:34:48;4.90;;;4.40;;
8353;SDS011;4656;48.090;11.498;2023-04-03T08:36:51;6.43;;;4.80;;
8353;SDS011;4656;48.090;11.498;2023-04-03T08:38:54;6.00;;;4.55;;
8353;SDS011;4656;48.090;11.498;2023-04-03T08:41:01;6.88;;;4.63;;
8353;SDS011;4656;48.090;11.498;2023-04-03T08:43:07;8.80;;;4.45;;
8353;SDS011;4656;48.090;11.498;2023-04-03T08:45:13;4.88;;;4.45;;
8353;SDS011;4656;48.090;11.498;2023-04-03T08:47:18;6.37;;;4.23;;
8353;SDS011;4656;48.090;11.498;2023-04-03T08:49:25;6.75;;;4.20;;
8353;SDS011;4656;48.090;11.498;2023-04-03T08:51:28;6.22;;;4.10;;
8353;SDS011;4656;48.090;11.498;2023-04-03T08:53:33;7.03;;;4.60;;
8353;SDS011;4656;48.090;11.498;2023-04-03T08:55:37;7.95;;;4.15;;
8353;SDS011;4656;48.090;11.498;2023-04-03T08:57:42;6.68;;;4.57;;
8353;SDS011;4656;48.090;11.498;2023-04-03T08:59:45;6.40;;;4.47;;
8353;SDS011;4656;48.090;11.498;2023-04-03T09:01:47;4.65;;;4.25;;
8353;SDS011;4656;48.090;11.498;2023-04-03T09:03:49;6.40;;;4.18;;
8353;SDS011;4656;48.090;11.498;2023-04-03T09:05:53;5.65;;;4.03;;
8353;SDS011;4656;48.090;11.498;2023-04-03T09:07:58;5.55;;;3.83;;
8353;SDS011;4656;48.090;11.498;2023-04-03T09:10:03;5.50;;;3.85;;
8353;SDS011;4656;48.090;11.498;2023-04-03T09:12:07;5.80;;;4.00;;
8353;SDS011;4656;48.090;11.498;2023-04-03T09:14:13;6.45;;;4.15;;
8353;SDS011;4656;48.090;11.498;2023-04-03T09:16:23;4.35;;;3.60;;
8353;SDS011;4656;48.090;11.498;2023-04-03T09:18:28;5.43;;;4.05;;
8353;SDS011;4656;48.090;11.498;2023-04-03T09:20:37;5.10;;;4.00;;
8353;SDS011;4656;48.090;11.498;2023-04-03T09:22:41;6.07;;;4.00;;
8353;SDS011;4656;48.090;11.498;2023-04-03T09:24:44;5.85;;;3.60;;
8353;SDS011;4656;48.090;11.498;2023-04-03T09:26:49;5.82;;;3.92;;
8353;SDS011;4656;48.090;11.498;2023-04-03T09:28:53;5.03;;;3.80;;
8353;SDS011;4656;48.090;11.498;2023-04-03T09:30:56;4.38;;;3.78;;
8353;SDS011;4656;48.090;11.498;2023-04-03T09:32:58;4.40;;;3.70;;
8353;SDS011;4656;48.090;11.498;2023-04-03T09:35:01;6.25;;;4.03;;
8353;SDS011;4656;48.090;11.498;2023-04-03T09:37:04;5.13;;;3.67;;
8353;SDS011;4656;48.090;11.498;2023-04-03T09:39:10;4.50;;;3.30;;
8353;SDS011;4656;48.090;11.498;2023-04-03T09:41:13;4.90;;;3.90;;
8353;SDS011;4656;48.090;11.498;2023-04-03T09:43:28;5.85;;;3.47;;
8353;SDS011;4656;48.090;11.498;2023-04-03T09:45:31;4.90;;;3.60;;
8353;SDS011;4656;48.090;11.498;2023-04-03T09:47:34;4.13;;;3.17;;
8353;SDS011;4656;48.090;11.498;2023-04-03T09:49:41;6.40;;;3.30;;
8353;SDS011;4656;48.090;11.498;2023-04-03T09:51:43;3.60;;;3.10;;
8353;SDS011;4656;48.090;11.498;2023-04-03T09:53:47;5.50;;;3.50;;
8353;SDS011;4656;48.090;11.498;2023-04-03T09:55:49;5.75;;;3.40;;
8353;SDS011;4656;48.090;11.498;2023-04-03T09:57:51;5.30;;;3.60;;
8353;SDS011;4656;48.090;11.498;2023-04-03T09:59:57;4.30;;;3.50;;
8353;SDS011;4656;48.090;11.498;2023-04-03T10:02:02;4.70;;;3.80;;
8353;SDS011;4656;48.090;11.498;2023-04-03T10:04:09;5.28;;;3.30;;
8353;SDS011;4656;48.090;11.498;2023-04-03T10:06:22;5.53;;;3.65;;
8353;SDS011;4656;48.090;11.498;2023-04-03T10:08:29;4.10;;;3.33;;
8353;SDS011;4656;48.090;11.498;2023-04-03T10:10:31;4.50;;;3.42;;
8353;SDS011;4656;48.090;11.498;2023-04-03T10:12:33;3.37;;;2.90;;
8353;SDS011;4656;48.090;11.498;2023-04-03T10:14:36;5.50;;;3.40;;
8353;SDS011;4656;48.090;11.498;2023-04-03T10:16:41;4.63;;;3.50;;
8353;SDS011;4656;48.090;11.498;2023-04-03T10:18:44;3.90;;;3.17;;
8353;SDS011;4656;48.090;11.498;2023-04-03T10:20:49;4.80;;;3.30;;
8353;SDS011;4656;48.090;11.498;2023-04-03T10:22:56;3.45;;;3.15;;
8353;SDS011;4656;48.090;11.498;2023-04-03T10:25:03;3.85;;;3.30;;
8353;SDS011;4656;48.090;11.498;2023-04-03T10:27:07;3.78;;;3.00;;
8353;SDS011;4656;48.090;11.498;2023-04-03T10:29:13;4.28;;;2.92;;
8353;SDS011;4656;48.090;11.498;2023-04-03T10:31:19;3.72;;;3.20;;
8353;SDS011;4656;48.090;11.498;2023-04-03T10:33:28;5.15;;;3.13;;
8353;SDS011;4656;48.090;11.498;2023-04-03T10:35:37;3.13;;;2.83;;
8353;SDS011;4656;48.090;11.498;2023-04-03T10:37:44;4.20;;;3.10;;
8353;SDS011;4656;48.090;11.498;2023-04-03T10:39:51;3.55;;;3.25;;
8353;SDS011;4656;48.090;11.498;2023-04-03T10:41:58;4.50;;;3.33;;
8353;SDS011;4656;48.090;11.498;2023-04-03T10:44:05;7.13;;;4.03;;
8353;SDS011;4656;48.090;11.498;2023-04-03T10:46:08;6.57;;;4.00;;
8353;SDS011;4656;48.090;11.498;2023-04-03T10:48:14;5.60;;;4.25;;
8353;SDS011;4656;48.090;11.498;2023-04-03T10:50:25;8.25;;;4.57;;
8353;SDS011;4656;48.090;11.498;2023-04-03T10:52:30;5.25;;;4.75;;
8353;SDS011;4656;48.090;11.498;2023-04-03T10:54:36;7.75;;;4.90;;
8353;SDS011;4656;48.090;11.498;2023-04-03T10:56:40;6.60;;;4.80;;
8353;SDS011;4656;48.090;11.498;2023-04-03T10:58:44;6.57;;;4.68;;
8353;SDS011;4656;48.090;11.498;2023-04-03T11:00:47;8.18;;;4.45;;
8353;SDS011;4656;48.090;11.498;2023-04-03T11:02:52;4.90;;;4.35;;
8353;SDS011;4656;48.090;11.498;2023-04-03T11:04:57;5.00;;;4.18;;
8353;SDS011;4656;48.090;11.498;2023-04-03T11:07:03;4.65;;;3.70;;
8353;SDS011;4656;48.090;11.498;2023-04-03T11:09:11;7.13;;;4.05;;
8353;SDS011;4656;48.090;11.498;2023-04-03T11:11:19;7.13;;;4.00;;
8353;SDS011;4656;48.090;11.498;2023-04-03T11:13:24;6.25;;;3.75;;
8353;SDS011;4656;48.090;11.498;2023-04-03T11:15:29;6.53;;;3.75;;
8353;SDS011;4656;48.090;11.498;2023-04-03T11:17:33;5.07;;;3.80;;
8353;SDS011;4656;48.090;11.498;2023-04-03T11:19:39;5.13;;;3.88;;
8353;SDS011;4656;48.090;11.498;2023-04-03T11:21:44;5.28;;;3.92;;
8353;SDS011;4656;48.090;11.498;2023-04-03T11:23:49;7.90;;;3.75;;
8353;SDS011;4656;48.090;11.498;2023-04-03T11:25:54;5.78;;;4.32;;
8353;SDS011;4656;48.090;11.498;2023-04-03T11:27:59;4.90;;;3.72;;
8353;SDS011;4656;48.090;11.498;2023-04-03T11:30:02;5.18;;;3.17;;
8353;SDS011;4656;48.090;11.498;2023-04-03T11:32:13;6.32;;;3.38;;
8353;SDS011;4656;48.090;11.498;2023-04-03T11:34:25;6.32;;;3.30;;
8353;SDS011;4656;48.090;11.498;2023-04-03T11:36:32;4.38;;;3.20;;
8353;SDS011;4656;48.090;11.498;2023-04-03T11:38:36;4.32;;;3.22;;
8353;SDS011;4656;48.090;11.498;2023-04-03T11:40:42;5.07;;;3.22;;
8353;SDS011;4656;48.090;11.498;2023-04-03T11:42:49;4.50;;;3.10;;
8353;SDS011;4656;48.090;11.498;2023-04-03T11:44:53;4.15;;;2.78;;
8353;SDS011;4656;48.090;11.498;2023-04-03T11:47:43;4.55;;;2.90;;
8353;SDS011;4656;48.090;11.498;2023-04-03T11:49:52;4.40;;;2.60;;
8353;SDS011;4656;48.090;11.498;2023-04-03T11:51:55;3.95;;;2.42;;
8353;SDS011;4656;48.090;11.498;2023-04-03T11:54:04;4.60;;;2.65;;
8353;SDS011;4656;48.090;11.498;2023-04-03T11:56:28;3.85;;;2.53;;
8353;SDS011;4656;48.090;11.498;2023-04-03T11:58:32;3.47;;;2.58;;
8353;SDS011;4656;48.090;11.498;2023-04-03T12:00:53;4.07;;;2.50;;
8353;SDS011;4656;48.090;11.498;2023-04-03T12:02:56;5.65;;;2.50;;
8353;SDS011;4656;48.090;11.498;2023-04-03T12:07:20;3.40;;;2.50;;
8353;SDS011;4656;48.090;11.498;2023-04-03T12:09:22;2.90;;;2.42;;
8353;SDS011;4656;48.090;11.498;2023-04-03T12:11:26;5.30;;;2.83;;
8353;SDS011;4656;48.090;11.498;2023-04-03T12:13:32;5.35;;;3.00;;
8353;SDS011;4656;48.090;11.498;2023-04-03T12:17:51;4.20;;;2.28;;
8353;SDS011;4656;48.090;11.498;2023-04-03T12:19:53;3.95;;;2.60;;
8353;SDS011;4656;48.090;11.498;2023-04-03T12:22:09;3.17;;;2.30;;
8353;SDS011;4656;48.090;11.498;2023-04-03T12:24:24;5.15;;;2.30;;
8353;SDS011;4656;48.090;11.498;2023-04-03T12:26:26;2.95;;;2.22;;
8353;SDS011;4656;48.090;11.498;2023-04-03T12:28:36;3.28;;;2.20;;
8353;SDS011;4656;48.090;11.498;2023-04-03T12:30:39;3.08;;;2.13;;
8353;SDS011;4656;48.090;11.498;2023-04-03T12:33:03;2.72;;;2.05;;
8353;SDS011;4656;48.090;11.498;2023-04-03T12:37:29;8.38;;;2.40;;
8353;SDS011;4656;48.090;11.498;2023-04-03T12:42:02;3.45;;;2.13;;
8353;SDS011;4656;48.090;11.498;2023-04-03T12:46:24;2.67;;;2.10;;